createdAt,value
2018-08-18T00:00:48.036Z,4.00
2018-08-18T00:01:48.057Z,4.00
2018-08-18T00:02:48.091Z,4.00
2018-08-18T00:03:48.102Z,4.00
2018-08-18T00:04:48.124Z,4.00
2018-08-18T00:05:48.148Z,4.00
2018-08-18T00:06:48.170Z,4.00
2018-08-18T00:07:48.197Z,4.00
2018-08-18T00:08:48.215Z,4.00
2018-08-18T00:09:48.234Z,4.00
2018-08-18T00:10:48.257Z,4.00
2018-08-18T00:11:48.329Z,8.00
2018-08-18T00:12:48.305Z,4.00
2018-08-18T00:13:48.324Z,4.00
2018-08-18T00:14:48.348Z,4.00
2018-08-18T00:15:48.368Z,4.00
2018-08-18T00:16:48.391Z,4.00
2018-08-18T00:17:48.413Z,4.00
2018-08-18T00:18:48.434Z,4.00
2018-08-18T00:19:48.460Z,4.00
2018-08-18T00:20:48.482Z,4.00
2018-08-18T00:21:48.500Z,4.00
2018-08-18T00:22:48.523Z,4.00
2018-08-18T00:23:48.548Z,4.00
2018-08-18T00:24:48.567Z,4.00
2018-08-18T00:25:48.592Z,4.00
2018-08-18T00:26:48.611Z,4.00
2018-08-18T00:27:48.637Z,4.00
2018-08-18T00:28:48.657Z,4.00
2018-08-18T00:29:48.681Z,4.00
2018-08-18T00:30:48.703Z,4.00
2018-08-18T00:31:48.726Z,4.00
2018-08-18T00:32:48.745Z,4.00
2018-08-18T00:33:48.768Z,4.00
2018-08-18T00:34:48.790Z,4.00
2018-08-18T00:35:48.813Z,4.00
2018-08-18T00:36:48.834Z,4.00
2018-08-18T00:37:48.855Z,4.00
2018-08-18T00:38:49.127Z,4.00
2018-08-18T00:39:48.904Z,4.00
2018-08-18T00:40:48.924Z,4.00
2018-08-18T00:41:48.942Z,4.00
2018-08-18T00:42:48.964Z,4.00
2018-08-18T00:43:48.989Z,4.00
2018-08-18T00:44:49.010Z,4.00
2018-08-18T00:45:49.032Z,4.00
2018-08-18T00:46:49.052Z,4.00
2018-08-18T00:47:49.075Z,4.00
2018-08-18T00:48:49.097Z,4.00
2018-08-18T00:49:49.118Z,4.00
2018-08-18T00:50:49.140Z,4.00
2018-08-18T00:51:49.165Z,4.00
2018-08-18T00:52:49.185Z,4.00
2018-08-18T00:53:49.213Z,4.00
2018-08-18T00:54:49.232Z,4.00
2018-08-18T00:55:49.253Z,4.00
2018-08-18T00:56:49.274Z,4.00
2018-08-18T00:57:49.293Z,4.00
2018-08-18T00:58:49.316Z,4.00
2018-08-18T00:59:49.339Z,4.00
2018-08-18T01:00:49.362Z,4.00
2018-08-18T01:01:49.385Z,4.00
2018-08-18T01:02:49.412Z,4.00
2018-08-18T01:03:49.429Z,4.00
2018-08-18T01:04:49.447Z,4.00
2018-08-18T01:05:49.472Z,4.00
2018-08-18T01:06:49.493Z,4.00
2018-08-18T01:07:49.513Z,4.00
2018-08-18T01:08:49.538Z,4.00
2018-08-18T01:09:49.557Z,4.00
2018-08-18T01:10:49.655Z,4.00
2018-08-18T01:11:49.811Z,4.00
2018-08-18T01:12:49.657Z,4.00
2018-08-18T01:13:49.774Z,4.00
2018-08-18T01:14:49.698Z,4.00
2018-08-18T01:15:49.721Z,4.00
2018-08-18T01:16:49.713Z,4.00
2018-08-18T01:17:49.731Z,4.00
2018-08-18T01:18:49.756Z,4.00
2018-08-18T01:19:49.778Z,4.00
2018-08-18T01:20:49.798Z,4.00
2018-08-18T01:21:49.821Z,4.00
2018-08-18T01:22:49.842Z,4.00
2018-08-18T01:23:49.866Z,4.00
2018-08-18T01:24:49.888Z,4.00
2018-08-18T01:25:49.908Z,4.00
2018-08-18T01:26:49.931Z,4.00
2018-08-18T01:27:49.954Z,4.00
2018-08-18T01:28:49.976Z,4.00
2018-08-18T01:29:49.993Z,4.00
2018-08-18T01:30:50.021Z,4.00
2018-08-18T01:31:50.036Z,4.00
2018-08-18T01:32:50.060Z,4.00
2018-08-18T01:33:50.078Z,4.00
2018-08-18T01:34:50.105Z,4.00
2018-08-18T01:35:50.124Z,4.00
2018-08-18T01:36:50.149Z,4.00
2018-08-18T01:37:50.167Z,4.00
2018-08-18T01:38:50.639Z,4.00
2018-08-18T01:39:50.211Z,4.00
2018-08-18T01:40:50.231Z,4.00
2018-08-18T01:41:50.252Z,4.00
2018-08-18T01:42:50.276Z,4.00
2018-08-18T01:43:50.389Z,4.00
2018-08-18T01:44:50.317Z,4.00
2018-08-18T01:45:50.342Z,4.00
2018-08-18T01:46:50.362Z,4.00
2018-08-18T01:47:50.381Z,4.00
2018-08-18T01:48:50.402Z,4.00
2018-08-18T01:49:50.427Z,4.00
2018-08-18T01:50:50.448Z,4.00
2018-08-18T01:51:50.467Z,4.00
2018-08-18T01:52:50.492Z,4.00
2018-08-18T01:53:50.513Z,4.00
2018-08-18T01:54:50.532Z,4.00
2018-08-18T01:55:50.659Z,4.00
2018-08-18T01:56:50.578Z,4.00
2018-08-18T01:57:50.595Z,4.00
2018-08-18T01:58:50.620Z,4.00
2018-08-18T01:59:50.639Z,4.00
2018-08-18T02:00:50.661Z,4.00
2018-08-18T02:01:50.681Z,4.00
2018-08-18T02:02:50.703Z,4.00
2018-08-18T02:03:50.729Z,4.00
2018-08-18T02:04:50.750Z,4.00
2018-08-18T02:05:50.768Z,4.00
2018-08-18T02:06:50.790Z,4.00
2018-08-18T02:07:50.814Z,4.00
2018-08-18T02:08:50.831Z,4.00
2018-08-18T02:09:50.854Z,4.00
2018-08-18T02:10:50.878Z,4.00
2018-08-18T02:11:50.898Z,4.00
2018-08-18T02:12:50.919Z,4.00
2018-08-18T02:13:50.939Z,4.00
2018-08-18T02:14:50.963Z,4.00
2018-08-18T02:15:50.983Z,4.00
2018-08-18T02:16:51.008Z,4.00
2018-08-18T02:17:51.029Z,4.00
2018-08-18T02:18:51.050Z,4.00
2018-08-18T02:19:51.099Z,4.00
2018-08-18T02:20:51.093Z,4.00
2018-08-18T02:21:51.110Z,4.00
2018-08-18T02:22:51.136Z,4.00
2018-08-18T02:23:51.157Z,4.00
2018-08-18T02:24:51.178Z,4.00
2018-08-18T02:25:51.197Z,4.00
2018-08-18T02:26:51.220Z,4.00
2018-08-18T02:27:51.241Z,4.00
2018-08-18T02:28:51.265Z,4.00
2018-08-18T02:29:51.283Z,4.00
2018-08-18T02:30:51.304Z,4.00
2018-08-18T02:31:51.328Z,4.00
2018-08-18T02:32:51.348Z,4.00
2018-08-18T02:33:51.370Z,4.00
2018-08-18T02:34:51.392Z,4.00
2018-08-18T02:35:51.411Z,4.00
2018-08-18T02:36:51.433Z,4.00
2018-08-18T02:37:51.453Z,4.00
2018-08-18T02:38:51.477Z,4.00
2018-08-18T02:39:51.500Z,4.00
2018-08-18T02:40:51.522Z,4.00
2018-08-18T02:41:51.542Z,4.00
2018-08-18T02:42:51.567Z,4.00
2018-08-18T02:43:51.584Z,4.00
2018-08-18T02:44:51.605Z,4.00
2018-08-18T02:45:51.624Z,4.00
2018-08-18T02:46:51.648Z,4.00
2018-08-18T02:47:51.668Z,4.00
2018-08-18T02:48:51.690Z,4.00
2018-08-18T02:49:51.713Z,4.00
2018-08-18T02:50:51.734Z,4.00
2018-08-18T02:51:51.757Z,4.00
2018-08-18T02:52:51.779Z,4.00
2018-08-18T02:53:51.798Z,4.00
2018-08-18T02:54:51.817Z,4.00
2018-08-18T02:55:52.741Z,4.00
2018-08-18T02:56:51.862Z,4.00
2018-08-18T02:57:51.881Z,4.00
2018-08-18T02:58:51.908Z,4.00
2018-08-18T02:59:51.928Z,4.00
2018-08-18T03:00:51.949Z,4.00
2018-08-18T03:01:51.969Z,4.00
2018-08-18T03:02:51.988Z,4.00
2018-08-18T03:03:52.010Z,4.00
2018-08-18T03:04:52.031Z,4.00
2018-08-18T03:05:52.056Z,4.00
2018-08-18T03:06:52.076Z,4.00
2018-08-18T03:07:52.137Z,4.00
2018-08-18T03:08:52.121Z,4.00
2018-08-18T03:09:52.139Z,4.00
2018-08-18T03:10:52.162Z,4.00
2018-08-18T03:11:52.185Z,4.00
2018-08-18T03:12:52.203Z,4.00
2018-08-18T03:13:52.223Z,4.00
2018-08-18T03:14:52.246Z,4.00
2018-08-18T03:15:52.269Z,4.00
2018-08-18T03:16:52.290Z,4.00
2018-08-18T03:17:52.310Z,4.00
2018-08-18T03:18:52.328Z,4.00
2018-08-18T03:19:52.349Z,4.00
2018-08-18T03:20:52.371Z,4.00
2018-08-18T03:21:52.394Z,4.00
2018-08-18T03:22:52.415Z,4.00
2018-08-18T03:23:52.434Z,4.00
2018-08-18T03:24:52.458Z,4.00
2018-08-18T03:25:52.478Z,4.00
2018-08-18T03:26:52.507Z,4.00
2018-08-18T03:27:52.520Z,4.00
2018-08-18T03:28:52.559Z,4.00
2018-08-18T03:29:52.565Z,4.00
2018-08-18T03:30:52.584Z,4.00
2018-08-18T03:31:52.604Z,4.00
2018-08-18T03:32:52.622Z,4.00
2018-08-18T03:33:52.645Z,4.00
2018-08-18T03:34:52.666Z,4.00
2018-08-18T03:35:52.685Z,4.00
2018-08-18T03:36:52.708Z,4.00
2018-08-18T03:37:52.726Z,4.00
2018-08-18T03:38:52.750Z,4.00
2018-08-18T03:39:52.772Z,4.00
2018-08-18T03:40:52.789Z,8.00
2018-08-18T03:41:52.812Z,8.00
2018-08-18T03:42:52.830Z,8.00
2018-08-18T03:43:52.856Z,8.00
2018-08-18T03:44:52.874Z,4.00
2018-08-18T03:45:52.895Z,4.00
2018-08-18T03:46:52.914Z,8.00
2018-08-18T03:47:52.938Z,8.00
2018-08-18T03:48:52.959Z,4.00
2018-08-18T03:49:52.979Z,8.00
2018-08-18T03:50:53.000Z,8.00
2018-08-18T03:51:53.023Z,8.00
2018-08-18T03:52:53.042Z,12.00
2018-08-18T03:53:53.060Z,12.00
2018-08-18T03:54:53.083Z,12.00
2018-08-18T03:55:53.106Z,12.00
2018-08-18T03:56:53.124Z,12.00
2018-08-18T03:57:53.146Z,16.00
2018-08-18T03:58:53.164Z,16.00
2018-08-18T03:59:53.189Z,12.00
2018-08-18T04:00:53.206Z,16.00
2018-08-18T04:01:53.247Z,20.00
2018-08-18T04:02:53.249Z,24.00
2018-08-18T04:03:53.270Z,28.00
2018-08-18T04:04:53.292Z,28.00
2018-08-18T04:05:53.310Z,32.00
2018-08-18T04:06:53.330Z,36.00
2018-08-18T04:07:53.354Z,40.00
2018-08-18T04:08:53.375Z,44.00
2018-08-18T04:09:53.395Z,52.00
2018-08-18T04:10:53.414Z,60.00
2018-08-18T04:11:53.436Z,68.00
2018-08-18T04:12:53.457Z,72.00
2018-08-18T04:13:53.478Z,80.00
2018-08-18T04:14:53.497Z,88.00
2018-08-18T04:15:53.520Z,96.00
2018-08-18T04:16:53.539Z,108.00
2018-08-18T04:17:53.560Z,116.00
2018-08-18T04:18:53.632Z,128.00
2018-08-18T04:19:53.601Z,136.00
2018-08-18T04:20:53.625Z,152.00
2018-08-18T04:21:53.644Z,160.00
2018-08-18T04:22:53.663Z,172.00
2018-08-18T04:23:53.687Z,188.00
2018-08-18T04:24:53.707Z,200.00
2018-08-18T04:25:53.729Z,212.00
2018-08-18T04:26:53.750Z,228.00
2018-08-18T04:27:53.769Z,244.00
2018-08-18T04:28:53.792Z,264.00
2018-08-18T04:29:53.809Z,280.00
2018-08-18T04:30:53.830Z,296.00
2018-08-18T04:31:53.851Z,320.00
2018-08-18T04:32:53.878Z,336.00
2018-08-18T04:33:53.896Z,356.00
2018-08-18T04:34:53.917Z,376.00
2018-08-18T04:35:53.935Z,400.00
2018-08-18T04:36:53.959Z,420.00
2018-08-18T04:37:53.976Z,444.00
2018-08-18T04:38:53.998Z,460.00
2018-08-18T04:39:54.022Z,488.00
2018-08-18T04:40:54.044Z,508.00
2018-08-18T04:41:54.062Z,528.00
2018-08-18T04:42:54.082Z,548.00
2018-08-18T04:43:54.152Z,564.00
2018-08-18T04:44:54.123Z,588.00
2018-08-18T04:45:54.144Z,604.00
2018-08-18T04:46:54.164Z,628.00
2018-08-18T04:47:54.187Z,640.00
2018-08-18T04:48:54.207Z,652.00
2018-08-18T04:49:54.230Z,664.00
2018-08-18T04:50:54.248Z,684.00
2018-08-18T04:51:54.273Z,696.00
2018-08-18T04:52:54.294Z,712.00
2018-08-18T04:53:54.314Z,728.00
2018-08-18T04:54:54.333Z,748.00
2018-08-18T04:55:54.356Z,768.00
2018-08-18T04:56:54.384Z,788.00
2018-08-18T04:57:54.394Z,812.00
2018-08-18T04:58:54.416Z,836.00
2018-08-18T04:59:54.442Z,852.00
2018-08-18T05:00:54.475Z,872.00
2018-08-18T05:01:54.478Z,892.00
2018-08-18T05:02:54.506Z,904.00
2018-08-18T05:03:54.523Z,920.00
2018-08-18T05:04:54.541Z,940.00
2018-08-18T05:05:54.564Z,956.00
2018-08-18T05:06:54.584Z,972.00
2018-08-18T05:07:54.608Z,992.00
2018-08-18T05:08:54.683Z,1000.00
2018-08-18T05:09:54.648Z,996.00
2018-08-18T05:10:54.671Z,968.00
2018-08-18T05:11:54.688Z,924.00
2018-08-18T05:12:54.710Z,932.00
2018-08-18T05:13:54.728Z,968.00
2018-08-18T05:14:54.749Z,1000.00
2018-08-18T05:15:54.775Z,1048.00
2018-08-18T05:16:54.795Z,1072.00
2018-08-18T05:17:54.815Z,1084.00
2018-08-18T05:18:54.868Z,1080.00
2018-08-18T05:19:54.854Z,1056.00
2018-08-18T05:20:54.876Z,1032.00
2018-08-18T05:21:54.896Z,1060.00
2018-08-18T05:22:54.920Z,1104.00
2018-08-18T05:23:54.940Z,1136.00
2018-08-18T05:24:54.963Z,1176.00
2018-08-18T05:25:54.980Z,1212.00
2018-08-18T05:26:55.002Z,1260.00
2018-08-18T05:27:55.024Z,1392.00
2018-08-18T05:28:55.047Z,1484.00
2018-08-18T05:29:55.063Z,1696.00
2018-08-18T05:30:55.085Z,1952.00
2018-08-18T05:31:55.110Z,2056.00
2018-08-18T05:32:55.129Z,2096.00
2018-08-18T05:33:55.151Z,2140.00
2018-08-18T05:34:55.172Z,2184.00
2018-08-18T05:35:55.194Z,2232.00
2018-08-18T05:36:55.213Z,2168.00
2018-08-18T05:37:55.233Z,2044.00
2018-08-18T05:38:55.258Z,2008.00
2018-08-18T05:39:55.279Z,1968.00
2018-08-18T05:40:55.301Z,1860.00
2018-08-18T05:41:55.321Z,1600.00
2018-08-18T05:42:55.376Z,1444.00
2018-08-18T05:43:55.362Z,1488.00
2018-08-18T05:44:55.386Z,1524.00
2018-08-18T05:45:55.408Z,1540.00
2018-08-18T05:46:55.430Z,1552.00
2018-08-18T05:47:55.452Z,1564.00
2018-08-18T05:48:55.472Z,1576.00
2018-08-18T05:49:55.495Z,1588.00
2018-08-18T05:50:55.517Z,1604.00
2018-08-18T05:51:55.541Z,1612.00
2018-08-18T05:52:55.557Z,1628.00
2018-08-18T05:53:55.581Z,1636.00
2018-08-18T05:54:55.646Z,1640.00
2018-08-18T05:55:55.625Z,1640.00
2018-08-18T05:56:55.647Z,1648.00
2018-08-18T05:57:55.668Z,1664.00
2018-08-18T05:58:55.689Z,1680.00
2018-08-18T05:59:55.710Z,1688.00
2018-08-18T06:00:55.732Z,1708.00
2018-08-18T06:01:55.752Z,1728.00
2018-08-18T06:02:55.775Z,1740.00
2018-08-18T06:03:55.795Z,1760.00
2018-08-18T06:04:55.817Z,1780.00
2018-08-18T06:05:55.838Z,1788.00
2018-08-18T06:06:55.859Z,1804.00
2018-08-18T06:07:55.881Z,1820.00
2018-08-18T06:08:55.906Z,1840.00
2018-08-18T06:09:55.925Z,1864.00
2018-08-18T06:10:55.945Z,1896.00
2018-08-18T06:11:55.994Z,1920.00
2018-08-18T06:12:55.992Z,1956.00
2018-08-18T06:13:56.012Z,1976.00
2018-08-18T06:14:56.035Z,1988.00
2018-08-18T06:15:56.053Z,2008.00
2018-08-18T06:16:56.078Z,2028.00
2018-08-18T06:17:56.098Z,2052.00
2018-08-18T06:18:56.117Z,2072.00
2018-08-18T06:19:56.143Z,2088.00
2018-08-18T06:20:56.163Z,2104.00
2018-08-18T06:21:56.182Z,2128.00
2018-08-18T06:22:56.203Z,2148.00
2018-08-18T06:23:56.226Z,2160.00
2018-08-18T06:24:56.251Z,2172.00
2018-08-18T06:25:56.269Z,2196.00
2018-08-18T06:26:56.291Z,2212.00
2018-08-18T06:27:56.313Z,2228.00
2018-08-18T06:28:56.335Z,2248.00
2018-08-18T06:29:56.357Z,2252.00
2018-08-18T06:30:56.379Z,2264.00
2018-08-18T06:31:56.400Z,2280.00
2018-08-18T06:32:56.423Z,2296.00
2018-08-18T06:33:56.447Z,2304.00
2018-08-18T06:34:56.603Z,2332.00
2018-08-18T06:35:56.497Z,2344.00
2018-08-18T06:36:56.511Z,2376.00
2018-08-18T06:37:56.535Z,2400.00
2018-08-18T06:38:56.554Z,2412.00
2018-08-18T06:39:56.577Z,2424.00
2018-08-18T06:40:56.637Z,2436.00
2018-08-18T06:41:56.747Z,2444.00
2018-08-18T06:42:56.645Z,2456.00
2018-08-18T06:43:56.668Z,2448.00
2018-08-18T06:44:56.687Z,2444.00
2018-08-18T06:45:56.711Z,2448.00
2018-08-18T06:46:56.734Z,2464.00
2018-08-18T06:47:56.756Z,2484.00
2018-08-18T06:48:56.783Z,2512.00
2018-08-18T06:49:56.799Z,2524.00
2018-08-18T06:50:56.823Z,2528.00
2018-08-18T06:51:56.845Z,2540.00
2018-08-18T06:52:56.868Z,2548.00
2018-08-18T06:53:56.889Z,2560.00
2018-08-18T06:54:57.083Z,2560.00
2018-08-18T06:55:56.937Z,2628.00
2018-08-18T06:56:56.962Z,2636.00
2018-08-18T06:57:56.979Z,2652.00
2018-08-18T06:58:56.999Z,2668.00
2018-08-18T06:59:57.025Z,2676.00
2018-08-18T07:00:57.046Z,2700.00
2018-08-18T07:01:57.067Z,2712.00
2018-08-18T07:02:57.091Z,2724.00
2018-08-18T07:03:57.111Z,2732.00
2018-08-18T07:04:57.135Z,2756.00
2018-08-18T07:05:57.188Z,2776.00
2018-08-18T07:06:57.179Z,2780.00
2018-08-18T07:07:57.204Z,2788.00
2018-08-18T07:08:57.223Z,2808.00
2018-08-18T07:09:57.249Z,2776.00
2018-08-18T07:10:57.268Z,2820.00
2018-08-18T07:11:57.291Z,2808.00
2018-08-18T07:12:57.316Z,2820.00
2018-08-18T07:13:57.339Z,2848.00
2018-08-18T07:14:57.359Z,2872.00
2018-08-18T07:15:57.385Z,2864.00
2018-08-18T07:16:57.404Z,2904.00
2018-08-18T07:17:57.432Z,2884.00
2018-08-18T07:18:57.449Z,2900.00
2018-08-18T07:19:57.472Z,2888.00
2018-08-18T07:20:57.495Z,2924.00
2018-08-18T07:21:57.516Z,2928.00
2018-08-18T07:22:57.540Z,2964.00
2018-08-18T07:23:57.563Z,2984.00
2018-08-18T07:24:57.588Z,3004.00
2018-08-18T07:25:57.611Z,3048.00
2018-08-18T07:26:57.634Z,3052.00
2018-08-18T07:27:57.657Z,3108.00
2018-08-18T07:28:57.795Z,3100.00
2018-08-18T07:29:57.701Z,3120.00
2018-08-18T07:30:57.721Z,3192.00
2018-08-18T07:31:57.745Z,3148.00
2018-08-18T07:32:57.769Z,3172.00
2018-08-18T07:33:57.792Z,3188.00
2018-08-18T07:34:57.817Z,3224.00
2018-08-18T07:35:57.840Z,3236.00
2018-08-18T07:36:57.863Z,3260.00
2018-08-18T07:37:57.885Z,3316.00
2018-08-18T07:38:57.964Z,3348.00
2018-08-18T07:39:57.932Z,3356.00
2018-08-18T07:40:57.954Z,3352.00
2018-08-18T07:41:57.976Z,3424.00
2018-08-18T07:42:57.998Z,3400.00
2018-08-18T07:43:58.036Z,3428.00
2018-08-18T07:44:58.044Z,3440.00
2018-08-18T07:45:58.073Z,3424.00
2018-08-18T07:46:58.093Z,3472.00
2018-08-18T07:47:58.118Z,3472.00
2018-08-18T07:48:58.139Z,3496.00
2018-08-18T07:49:58.160Z,3744.00
2018-08-18T07:50:58.187Z,3520.00
2018-08-18T07:51:58.208Z,3572.00
2018-08-18T07:52:58.273Z,3552.00
2018-08-18T07:53:58.257Z,3596.00
2018-08-18T07:54:58.278Z,3596.00
2018-08-18T07:55:58.304Z,3612.00
2018-08-18T07:56:58.328Z,3656.00
2018-08-18T07:57:58.350Z,3668.00
2018-08-18T07:58:58.372Z,3712.00
2018-08-18T07:59:58.400Z,3724.00
2018-08-18T08:00:58.422Z,3756.00
2018-08-18T08:01:58.443Z,3788.00
2018-08-18T08:02:58.466Z,3816.00
2018-08-18T08:03:58.491Z,3828.00
2018-08-18T08:04:58.547Z,3828.00
2018-08-18T08:05:58.539Z,3888.00
2018-08-18T08:06:58.561Z,3904.00
2018-08-18T08:07:58.585Z,3928.00
2018-08-18T08:08:58.617Z,3968.00
2018-08-18T08:09:58.633Z,3984.00
2018-08-18T08:10:58.656Z,3980.00
2018-08-18T08:11:58.686Z,4024.00
2018-08-18T08:12:58.739Z,4004.00
2018-08-18T08:13:58.728Z,4080.00
2018-08-18T08:14:58.751Z,4112.00
2018-08-18T08:15:58.779Z,4124.00
2018-08-18T08:16:58.804Z,4152.00
2018-08-18T08:17:58.821Z,4160.00
2018-08-18T08:18:58.846Z,4240.00
2018-08-18T08:19:58.873Z,4236.00
2018-08-18T08:20:58.896Z,4276.00
2018-08-18T08:21:58.917Z,4332.00
2018-08-18T08:22:58.942Z,4368.00
2018-08-18T08:23:58.968Z,4384.00
2018-08-18T08:24:58.988Z,4392.00
2018-08-18T08:25:59.012Z,4540.00
2018-08-18T08:26:59.039Z,4412.00
2018-08-18T08:27:59.060Z,4400.00
2018-08-18T08:28:59.085Z,4364.00
2018-08-18T08:29:59.109Z,4284.00
2018-08-18T08:30:59.133Z,4348.00
2018-08-18T08:31:59.156Z,4340.00
2018-08-18T08:32:59.181Z,4280.00
2018-08-18T08:33:59.207Z,4368.00
2018-08-18T08:34:59.228Z,4428.00
2018-08-18T08:35:59.256Z,4372.00
2018-08-18T08:36:59.279Z,4400.00
2018-08-18T08:37:59.301Z,4512.00
2018-08-18T08:38:59.328Z,4572.00
2018-08-18T08:39:59.352Z,4564.00
2018-08-18T08:40:59.373Z,4548.00
2018-08-18T08:41:59.399Z,4576.00
2018-08-18T08:42:59.425Z,4604.00
2018-08-18T08:43:59.449Z,4592.00
2018-08-18T08:44:59.474Z,4612.00
2018-08-18T08:45:59.494Z,4584.00
2018-08-18T08:46:59.521Z,4548.00
2018-08-18T08:47:59.543Z,4644.00
2018-08-18T08:48:59.660Z,4596.00
2018-08-18T08:49:59.591Z,4624.00
2018-08-18T08:50:59.666Z,4596.00
2018-08-18T08:51:59.643Z,4688.00
2018-08-18T08:52:59.665Z,4644.00
2018-08-18T08:53:59.690Z,4608.00
2018-08-18T08:54:59.714Z,4552.00
2018-08-18T08:55:59.740Z,4604.00
2018-08-18T08:56:59.764Z,4520.00
2018-08-18T08:57:59.791Z,4524.00
2018-08-18T08:58:59.864Z,4428.00
2018-08-18T08:59:59.836Z,4436.00
2018-08-18T09:00:59.860Z,4468.00
2018-08-18T09:01:59.888Z,4472.00
2018-08-18T09:02:59.916Z,4568.00
2018-08-18T09:03:59.937Z,4560.00
2018-08-18T09:04:59.959Z,4628.00
2018-08-18T09:05:59.984Z,4608.00
2018-08-18T09:07:00.009Z,4768.00
2018-08-18T09:08:00.036Z,4588.00
2018-08-18T09:09:00.060Z,4596.00
2018-08-18T09:10:00.083Z,4596.00
2018-08-18T09:11:00.108Z,4536.00
2018-08-18T09:12:00.133Z,4464.00
2018-08-18T09:13:00.158Z,4556.00
2018-08-18T09:14:00.185Z,4320.00
2018-08-18T09:15:00.207Z,4356.00
2018-08-18T09:16:00.236Z,4280.00
2018-08-18T09:17:00.264Z,4244.00
2018-08-18T09:18:00.285Z,4412.00
2018-08-18T09:19:00.306Z,4204.00
2018-08-18T09:20:00.382Z,4444.00
2018-08-18T09:21:00.358Z,4448.00
2018-08-18T09:22:00.385Z,4324.00
2018-08-18T09:23:00.411Z,4476.00
2018-08-18T09:24:00.435Z,4488.00
2018-08-18T09:25:00.460Z,4512.00
2018-08-18T09:26:00.507Z,4644.00
2018-08-18T09:27:00.507Z,4688.00
2018-08-18T09:28:00.536Z,4648.00
2018-08-18T09:29:00.558Z,4620.00
2018-08-18T09:30:00.592Z,4608.00
2018-08-18T09:31:00.613Z,4652.00
2018-08-18T09:32:00.635Z,4752.00
2018-08-18T09:33:00.661Z,4632.00
2018-08-18T09:34:00.685Z,4736.00
2018-08-18T09:35:00.708Z,4728.00
2018-08-18T09:36:00.736Z,4764.00
2018-08-18T09:37:00.759Z,4656.00
2018-08-18T09:38:00.788Z,4132.00
2018-08-18T09:39:00.812Z,4672.00
2018-08-18T09:40:00.837Z,4776.00
2018-08-18T09:41:00.861Z,4680.00
2018-08-18T09:42:00.887Z,4756.00
2018-08-18T09:43:00.910Z,4612.00
2018-08-18T09:44:00.935Z,4848.00
2018-08-18T09:45:00.963Z,4836.00
2018-08-18T09:46:00.987Z,4628.00
2018-08-18T09:47:01.012Z,5084.00
2018-08-18T09:48:01.039Z,5172.00
2018-08-18T09:49:01.064Z,5184.00
2018-08-18T09:50:01.090Z,5236.00
2018-08-18T09:51:01.113Z,4912.00
2018-08-18T09:52:01.142Z,5192.00
2018-08-18T09:53:01.165Z,4988.00
2018-08-18T09:54:01.190Z,3528.00
2018-08-18T09:55:01.214Z,3240.00
2018-08-18T09:56:01.247Z,2988.00
2018-08-18T09:57:01.297Z,5012.00
2018-08-18T09:58:01.288Z,4576.00
2018-08-18T09:59:01.315Z,4876.00
2018-08-18T10:00:01.643Z,4920.00
2018-08-18T10:01:01.365Z,4908.00
2018-08-18T10:02:01.398Z,4728.00
2018-08-18T10:03:01.418Z,4560.00
2018-08-18T10:04:01.644Z,4708.00
2018-08-18T10:05:01.471Z,4160.00
2018-08-18T10:06:01.490Z,4860.00
2018-08-18T10:07:01.517Z,4888.00
2018-08-18T10:08:01.542Z,4864.00
2018-08-18T10:09:01.670Z,4892.00
2018-08-18T10:10:01.595Z,3856.00
2018-08-18T10:11:01.620Z,4964.00
2018-08-18T10:12:01.646Z,5120.00
2018-08-18T10:13:01.669Z,4316.00
2018-08-18T10:14:01.696Z,5160.00
2018-08-18T10:15:01.719Z,5360.00
2018-08-18T10:16:01.748Z,5304.00
2018-08-18T10:17:01.773Z,3180.00
2018-08-18T10:18:01.799Z,5432.00
2018-08-18T10:19:01.821Z,5708.00
2018-08-18T10:20:01.847Z,5968.00
2018-08-18T10:21:01.875Z,6644.00
2018-08-18T10:22:01.896Z,6424.00
2018-08-18T10:23:01.924Z,4832.00
2018-08-18T10:24:01.951Z,3900.00
2018-08-18T10:25:01.974Z,5956.00
2018-08-18T10:26:02.000Z,6280.00
2018-08-18T10:27:02.027Z,6104.00
2018-08-18T10:28:02.049Z,6008.00
2018-08-18T10:29:02.079Z,5632.00
2018-08-18T10:30:02.104Z,5464.00
2018-08-18T10:31:02.130Z,5384.00
2018-08-18T10:32:02.156Z,5392.00
2018-08-18T10:33:02.182Z,5156.00
2018-08-18T10:34:02.207Z,4228.00
2018-08-18T10:35:02.230Z,3484.00
2018-08-18T10:36:02.256Z,3204.00
2018-08-18T10:37:02.286Z,3152.00
2018-08-18T10:38:02.308Z,5088.00
2018-08-18T10:39:02.333Z,2928.00
2018-08-18T10:40:02.361Z,2896.00
2018-08-18T10:41:02.387Z,2920.00
2018-08-18T10:42:02.422Z,5240.00
2018-08-18T10:43:02.437Z,5056.00
2018-08-18T10:44:02.464Z,5004.00
2018-08-18T10:45:02.487Z,4880.00
2018-08-18T10:46:02.515Z,4836.00
2018-08-18T10:47:02.538Z,4668.00
2018-08-18T10:48:02.565Z,4752.00
2018-08-18T10:49:02.592Z,4700.00
2018-08-18T10:50:02.615Z,4652.00
2018-08-18T10:51:02.643Z,4632.00
2018-08-18T10:52:02.668Z,4012.00
2018-08-18T10:53:02.697Z,4756.00
2018-08-18T10:54:02.718Z,4920.00
2018-08-18T10:55:02.747Z,5100.00
2018-08-18T10:56:02.769Z,5176.00
2018-08-18T10:57:02.795Z,5012.00
2018-08-18T10:58:02.831Z,4728.00
2018-08-18T10:59:02.846Z,4716.00
2018-08-18T11:00:02.878Z,4664.00
2018-08-18T11:01:02.901Z,4596.00
2018-08-18T11:02:02.928Z,4564.00
2018-08-18T11:03:02.953Z,4604.00
2018-08-18T11:04:03.089Z,4628.00
2018-08-18T11:05:03.011Z,4652.00
2018-08-18T11:06:03.031Z,4628.00
2018-08-18T11:07:03.056Z,4668.00
2018-08-18T11:08:03.086Z,4628.00
2018-08-18T11:09:03.106Z,4652.00
2018-08-18T11:10:03.134Z,4660.00
2018-08-18T11:11:03.159Z,4580.00
2018-08-18T11:12:03.184Z,4544.00
2018-08-18T11:13:03.209Z,4500.00
2018-08-18T11:14:03.237Z,4444.00
2018-08-18T11:15:03.261Z,4508.00
2018-08-18T11:16:03.290Z,4560.00
2018-08-18T11:17:03.313Z,4568.00
2018-08-18T11:18:03.345Z,4628.00
2018-08-18T11:19:03.368Z,4668.00
2018-08-18T11:20:03.396Z,4716.00
2018-08-18T11:21:03.419Z,4672.00
2018-08-18T11:22:03.448Z,4616.00
2018-08-18T11:23:03.470Z,4444.00
2018-08-18T11:24:03.495Z,4376.00
2018-08-18T11:25:03.522Z,4140.00
2018-08-18T11:26:03.546Z,4140.00
2018-08-18T11:27:03.576Z,4120.00
2018-08-18T11:28:03.598Z,4120.00
2018-08-18T11:29:03.626Z,4196.00
2018-08-18T11:30:03.653Z,4308.00
2018-08-18T11:31:03.676Z,4248.00
2018-08-18T11:32:03.705Z,4264.00
2018-08-18T11:33:03.728Z,4244.00
2018-08-18T11:34:03.754Z,4236.00
2018-08-18T11:35:03.807Z,4260.00
2018-08-18T11:36:03.814Z,4192.00
2018-08-18T11:37:03.835Z,4240.00
2018-08-18T11:38:03.860Z,4056.00
2018-08-18T11:39:03.884Z,4264.00
2018-08-18T11:40:03.913Z,4268.00
2018-08-18T11:41:03.938Z,4316.00
2018-08-18T11:42:03.964Z,4300.00
2018-08-18T11:43:03.991Z,4360.00
2018-08-18T11:44:04.017Z,4332.00
2018-08-18T11:45:04.043Z,4328.00
2018-08-18T11:46:04.070Z,4264.00
2018-08-18T11:47:04.110Z,4452.00
2018-08-18T11:48:04.119Z,4316.00
2018-08-18T11:49:04.152Z,4244.00
2018-08-18T11:50:04.174Z,4184.00
2018-08-18T11:51:04.200Z,4176.00
2018-08-18T11:52:04.225Z,4124.00
2018-08-18T11:53:04.249Z,4104.00
2018-08-18T11:54:04.276Z,4116.00
2018-08-18T11:55:04.301Z,4104.00
2018-08-18T11:56:04.327Z,4172.00
2018-08-18T11:57:04.356Z,4088.00
2018-08-18T11:58:04.381Z,4064.00
2018-08-18T11:59:04.408Z,4104.00
2018-08-18T12:00:04.434Z,4084.00
2018-08-18T12:01:04.467Z,4048.00
2018-08-18T12:02:04.500Z,4092.00
2018-08-18T12:03:04.509Z,4092.00
2018-08-18T12:04:04.539Z,4112.00
2018-08-18T12:05:04.566Z,4108.00
2018-08-18T12:06:04.591Z,4080.00
2018-08-18T12:07:04.617Z,4088.00
2018-08-18T12:08:04.640Z,4176.00
2018-08-18T12:09:04.670Z,4172.00
2018-08-18T12:10:04.692Z,4152.00
2018-08-18T12:11:04.798Z,4224.00
2018-08-18T12:12:04.750Z,4108.00
2018-08-18T12:13:04.775Z,4060.00
2018-08-18T12:14:04.801Z,4020.00
2018-08-18T12:15:04.824Z,3976.00
2018-08-18T12:16:04.850Z,3956.00
2018-08-18T12:17:04.880Z,3880.00
2018-08-18T12:18:04.906Z,3884.00
2018-08-18T12:19:04.932Z,3880.00
2018-08-18T12:20:04.959Z,3964.00
2018-08-18T12:21:04.982Z,3968.00
2018-08-18T12:22:05.011Z,3940.00
2018-08-18T12:23:05.039Z,4028.00
2018-08-18T12:24:05.067Z,4024.00
2018-08-18T12:25:05.087Z,3960.00
2018-08-18T12:26:05.118Z,3932.00
2018-08-18T12:27:05.140Z,3928.00
2018-08-18T12:28:05.171Z,3976.00
2018-08-18T12:29:05.246Z,3976.00
2018-08-18T12:30:05.276Z,3952.00
2018-08-18T12:31:05.248Z,3916.00